Time;durP1;ratioP1;P1;durP2;ratioP2;P2;SDS_P1;SDS_P2;PMS_P1;PMS_P2;Temp;Humidity;BMP_temperature;BMP_pressure;BME280_temperature;BME280_humidity;BME280_pressure;Samples;Min_cycle;Max_cycle;Signal;HPM_P1;HPM_P2
2023/04/19 00:01:11;;;;;;;;;;;11.10;99.90;;;;;;5083616;28;19933;-66
2023/04/19 00:03:38;;;;;;;;;;;11.10;99.90;;;;;;5086336;28;19924;-67
2023/04/19 00:06:07;;;;;;;;;;;11.10;99.90;;;;;;5082337;28;19924;-68
2023/04/19 00:08:33;;;;;;;;;;;11.10;99.90;;;;;;5078106;28;19928;-68
2023/04/19 00:11:00;;;;;;;;;;;11.10;99.90;;;;;;5098801;28;20306;-68
2023/04/19 00:13:27;;;;;;;;;;;;;;;;;;5082772;28;19924;-68
2023/04/19 00:15:56;;;;;;;;;;;11.10;99.90;;;;;;5088024;28;19924;-67
2023/04/19 00:18:22;;;;;;;;;;;11.10;99.90;;;;;;5082924;28;19928;-68
2023/04/19 00:20:50;;;;;;;;;;;11.10;99.90;;;;;;5107985;28;19932;-67
2023/04/19 00:23:16;;;;;;;;;;;11.00;99.90;;;;;;5082226;28;19924;-69
2023/04/19 00:25:43;;;;;;;;;;;;;;;;;;5084506;28;19928;-68
2023/04/19 00:28:10;;;;;;;;;;;11.00;99.90;;;;;;5091607;28;19936;-68
2023/04/19 00:30:37;;;;;;;;;;;11.00;99.90;;;;;;5080420;28;19925;-67
2023/04/19 00:33:11;;;;;;;;;;;11.00;99.90;;;;;;5086160;28;20306;-69
2023/04/19 00:35:38;;;;;;;;;;;11.00;99.90;;;;;;5085260;28;19924;-68
2023/04/19 00:38:04;;;;;;;;;;;10.90;99.90;;;;;;5094451;28;19929;-68
2023/04/19 00:40:31;;;;;;;;;;;10.90;99.90;;;;;;5090146;28;19950;-68
2023/04/19 00:42:58;;;;;;;;;;;11.00;99.90;;;;;;5081471;28;19928;-67
2023/04/19 00:45:25;;;;;;;;;;;10.90;99.90;;;;;;5084872;28;19932;-68
2023/04/19 00:47:55;;;;;;;;;;;10.60;99.90;;;;;;5090039;28;19924;-67
2023/04/19 00:50:23;;;;;;;;;;;10.90;99.90;;;;;;5100350;28;19929;-68
2023/04/19 00:52:50;;;;;;;;;;;10.90;99.90;;;;;;5084954;28;19932;-68
2023/04/19 00:55:17;;;;;;;;;;;10.90;99.90;;;;;;5083784;28;19924;-67
2023/04/19 00:57:44;;;;;;;;;;;10.90;99.90;;;;;;5079485;28;19935;-68
2023/04/19 01:00:11;;;;;;;;;;;10.90;99.90;;;;;;5085800;28;19924;-68
2023/04/19 01:02:38;;;;;;;;;;;10.80;99.90;;;;;;5080969;28;19923;-67
2023/04/19 01:05:05;;;;;;;;;;;10.80;99.90;;;;;;5078451;28;19924;-68
2023/04/19 01:07:34;;;;;;;;;;;10.80;99.90;;;;;;5079886;28;19924;-67
2023/04/19 01:10:01;;;;;;;;;;;10.90;99.90;;;;;;5101942;28;19982;-67
2023/04/19 01:12:28;;;;;;;;;;;10.80;99.90;;;;;;5100705;28;19925;-67
2023/04/19 01:14:55;;;;;;;;;;;10.80;99.90;;;;;;5086416;28;19928;-66
2023/04/19 01:17:22;;;;;;;;;;;10.80;99.90;;;;;;5098661;28;19928;-68
2023/04/19 01:19:49;;;;;;;;;;;10.80;99.90;;;;;;5090555;28;19931;-66
2023/04/19 01:22:18;;;;;;;;;;;10.80;99.90;;;;;;5096645;28;19935;-68
2023/04/19 01:24:46;;;;;;;;;;;10.80;99.90;;;;;;5095473;28;20349;-69
2023/04/19 01:27:12;;;;;;;;;;;10.70;99.90;;;;;;5079122;28;19935;-67
2023/04/19 01:29:39;;;;;;;;;;;10.70;99.90;;;;;;5089451;28;19932;-66
2023/04/19 01:32:06;;;;;;;;;;;10.70;99.90;;;;;;5082544;28;19925;-67
2023/04/19 01:34:33;;;;;;;;;;;10.70;99.90;;;;;;5085091;28;19931;-66
2023/04/19 01:37:00;;;;;;;;;;;10.70;99.90;;;;;;5095451;28;19925;-67
2023/04/19 01:39:28;;;;;;;;;;;10.70;99.90;;;;;;5084999;28;20338;-67
2023/04/19 01:41:55;;;;;;;;;;;10.70;99.90;;;;;;5082938;28;19928;-69
2023/04/19 01:44:22;;;;;;;;;;;10.70;99.90;;;;;;5082833;28;19931;-68
2023/04/19 01:46:49;;;;;;;;;;;;;;;;;;5083528;28;19968;-68
2023/04/19 01:49:16;;;;;;;;;;;10.60;99.90;;;;;;5080285;28;19977;-68
2023/04/19 01:51:43;;;;;;;;;;;10.60;99.90;;;;;;5074818;28;19925;-68
2023/04/19 01:54:09;;;;;;;;;;;10.60;99.90;;;;;;5081476;28;19928;-67
2023/04/19 01:56:38;;;;;;;;;;;10.50;99.90;;;;;;5082090;28;19925;-67
2023/04/19 01:59:04;;;;;;;;;;;10.40;99.90;;;;;;5082502;28;19928;-66
2023/04/19 02:01:31;;;;;;;;;;;10.30;99.90;;;;;;5090315;28;19968;-67
2023/04/19 02:03:58;;;;;;;;;;;10.20;99.90;;;;;;5100667;28;19931;-68
2023/04/19 02:06:26;;;;;;;;;;;10.10;99.90;;;;;;5077854;28;19932;-68
2023/04/19 02:08:53;;;;;;;;;;;10.00;99.90;;;;;;5085754;28;19976;-68
2023/04/19 02:11:20;;;;;;;;;;;9.90;99.90;;;;;;5099694;28;19925;-67
2023/04/19 02:13:48;;;;;;;;;;;9.80;99.90;;;;;;5079037;28;19929;-68
2023/04/19 02:16:15;;;;;;;;;;;9.70;99.90;;;;;;5081402;28;19928;-67
2023/04/19 02:18:42;;;;;;;;;;;9.60;99.90;;;;;;5083422;28;19928;-68
2023/04/19 02:21:09;;;;;;;;;;;9.60;99.90;;;;;;5082424;28;20474;-68
2023/04/19 02:23:36;;;;;;;;;;;9.50;99.90;;;;;;5083554;28;20315;-67
2023/04/19 02:26:03;;;;;;;;;;;9.50;99.90;;;;;;5079636;28;19924;-69
2023/04/19 02:28:30;;;;;;;;;;;9.50;99.90;;;;;;5081257;28;19924;-67
2023/04/19 02:30:57;;;;;;;;;;;;;;;;;;5087682;28;19932;-68
2023/04/19 02:33:25;;;;;;;;;;;9.20;99.90;;;;;;5085229;28;19967;-68
2023/04/19 02:35:53;;;;;;;;;;;9.40;99.90;;;;;;5081167;28;20283;-66
2023/04/19 02:38:19;;;;;;;;;;;9.40;99.90;;;;;;5080197;28;19924;-68
2023/04/19 02:40:46;;;;;;;;;;;9.40;99.90;;;;;;5081107;28;19928;-67
2023/04/19 02:43:13;;;;;;;;;;;9.40;99.90;;;;;;5075636;28;19931;-69
2023/04/19 02:45:43;;;;;;;;;;;9.30;99.90;;;;;;5075975;28;19924;-67
2023/04/19 02:48:12;;;;;;;;;;;9.30;99.90;;;;;;5086445;28;19924;-67
2023/04/19 02:50:41;;;;;;;;;;;9.30;99.90;;;;;;5077079;28;19932;-68
2023/04/19 02:53:08;;;;;;;;;;;9.40;99.90;;;;;;5077784;28;20276;-67
2023/04/19 02:55:35;;;;;;;;;;;9.40;99.90;;;;;;5076436;28;20391;-67
2023/04/19 02:58:09;;;;;;;;;;;9.50;99.90;;;;;;5080484;28;19924;-68
2023/04/19 03:00:42;;;;;;;;;;;9.60;99.90;;;;;;5078761;28;19924;-68
2023/04/19 03:03:13;;;;;;;;;;;9.70;99.90;;;;;;5080531;28;20387;-67
2023/04/19 03:05:41;;;;;;;;;;;9.70;99.90;;;;;;5088895;28;19924;-68
2023/04/19 03:08:09;;;;;;;;;;;9.80;99.90;;;;;;5084658;28;19931;-70
2023/04/19 03:10:36;;;;;;;;;;;9.80;99.90;;;;;;5081409;28;19928;-69
2023/04/19 03:13:03;;;;;;;;;;;9.80;99.90;;;;;;5081781;28;20011;-66
2023/04/19 03:15:30;;;;;;;;;;;9.90;99.90;;;;;;5084342;28;19931;-67
2023/04/19 03:17:57;;;;;;;;;;;9.90;99.90;;;;;;5105095;28;19932;-67
2023/04/19 03:20:25;;;;;;;;;;;9.90;99.90;;;;;;5080655;28;19978;-69
2023/04/19 03:22:53;;;;;;;;;;;10.00;99.90;;;;;;5092330;28;19932;-67
2023/04/19 03:25:20;;;;;;;;;;;10.00;99.90;;;;;;5080900;28;20368;-68
2023/04/19 03:27:54;;;;;;;;;;;;;;;;;;5092639;28;20036;-66
2023/04/19 03:30:33;;;;;;;;;;;;;;;;;;5083725;28;19924;-68
2023/04/19 03:33:00;;;;;;;;;;;;;;;;;;5089092;28;19939;-65
2023/04/19 03:35:29;;;;;;;;;;;;;;;;;;5083898;28;19924;-69
2023/04/19 03:38:01;;;;;;;;;;;9.90;99.90;;;;;;5083625;28;19932;-67
2023/04/19 03:40:28;;;;;;;;;;;10.00;99.90;;;;;;5080423;28;19925;-67
2023/04/19 03:42:55;;;;;;;;;;;10.00;99.90;;;;;;5084365;28;19978;-66
2023/04/19 03:45:29;;;;;;;;;;;10.00;99.90;;;;;;5082222;28;19924;-67
2023/04/19 03:47:56;;;;;;;;;;;10.00;99.90;;;;;;5086184;28;19928;-68
2023/04/19 03:50:24;;;;;;;;;;;10.00;99.90;;;;;;5088489;28;20038;-69
2023/04/19 03:52:54;;;;;;;;;;;10.10;99.90;;;;;;5084572;28;19925;-68
2023/04/19 03:55:23;;;;;;;;;;;10.10;99.90;;;;;;5080517;28;19924;-68
2023/04/19 03:57:50;;;;;;;;;;;10.10;99.90;;;;;;5087350;28;19928;-68
2023/04/19 04:00:30;;;;;;;;;;;10.10;99.90;;;;;;5080284;28;20349;-68
2023/04/19 04:03:00;;;;;;;;;;;10.10;99.90;;;;;;5080000;28;19932;-67
2023/04/19 04:05:27;;;;;;;;;;;10.10;99.90;;;;;;5079875;28;19938;-68
2023/04/19 04:07:55;;;;;;;;;;;10.10;99.90;;;;;;5077037;28;19924;-67
2023/04/19 04:10:23;;;;;;;;;;;10.10;99.90;;;;;;5078443;28;20329;-66
2023/04/19 04:12:51;;;;;;;;;;;10.10;99.90;;;;;;5087774;28;20402;-67
2023/04/19 04:15:25;;;;;;;;;;;;;;;;;;5086101;28;19924;-66
2023/04/19 04:17:53;;;;;;;;;;;10.10;99.90;;;;;;5083258;28;19924;-67
2023/04/19 04:20:21;;;;;;;;;;;10.20;99.90;;;;;;5084400;28;19932;-67
2023/04/19 04:22:49;;;;;;;;;;;10.20;99.90;;;;;;5081967;28;20417;-68
2023/04/19 04:25:19;;;;;;;;;;;;;;;;;;5087798;28;19928;-66
2023/04/19 04:27:50;;;;;;;;;;;10.20;99.90;;;;;;5083049;28;19934;-67
2023/04/19 04:30:19;;;;;;;;;;;10.20;99.90;;;;;;5083312;28;19924;-68
2023/04/19 04:32:46;;;;;;;;;;;10.20;99.90;;;;;;5083887;28;19928;-68
2023/04/19 04:35:13;;;;;;;;;;;10.20;99.90;;;;;;5104495;28;19924;-66
2023/04/19 04:37:47;;;;;;;;;;;10.20;99.90;;;;;;5088587;28;19924;-67
2023/04/19 04:40:14;;;;;;;;;;;10.20;99.90;;;;;;5080308;28;19951;-72
2023/04/19 04:42:41;;;;;;;;;;;10.20;99.90;;;;;;5100021;28;20453;-68
2023/04/19 04:45:11;;;;;;;;;;;10.20;99.90;;;;;;5085879;28;19932;-68
2023/04/19 04:47:45;;;;;;;;;;;11.50;99.90;;;;;;5086875;28;19924;-66
2023/04/19 04:50:14;;;;;;;;;;;10.20;99.90;;;;;;5080085;28;19932;-68
2023/04/19 04:52:41;;;;;;;;;;;10.20;99.90;;;;;;5079393;28;19929;-68
2023/04/19 04:55:11;;;;;;;;;;;10.20;99.90;;;;;;5084148;28;19985;-68
2023/04/19 04:57:43;;;;;;;;;;;10.20;99.90;;;;;;5083730;28;19951;-69
2023/04/19 05:00:17;;;;;;;;;;;10.20;99.90;;;;;;5101988;28;19956;-68
2023/04/19 05:03:06;;;;;;;;;;;10.20;99.90;;;;;;5083933;28;19931;-66
2023/04/19 05:05:37;;;;;;;;;;;10.30;99.90;;;;;;5083410;28;20432;-67
2023/04/19 05:08:05;;;;;;;;;;;;;;;;;;5083869;28;20293;-66
2023/04/19 05:10:32;;;;;;;;;;;10.20;99.90;;;;;;5086154;28;20403;-67
2023/04/19 05:13:01;;;;;;;;;;;10.30;99.90;;;;;;5090640;28;19925;-67
2023/04/19 05:15:30;;;;;;;;;;;10.30;99.90;;;;;;5075959;28;19956;-68
2023/04/19 05:17:58;;;;;;;;;;;;;;;;;;5080961;28;19928;-67
2023/04/19 05:20:25;;;;;;;;;;;;;;;;;;5078711;28;19924;-67
2023/04/19 05:23:02;;;;;;;;;;;10.40;99.90;;;;;;5077323;28;19931;-66
2023/04/19 05:25:31;;;;;;;;;;;10.40;99.90;;;;;;5080345;28;19931;-67
2023/04/19 05:27:59;;;;;;;;;;;10.50;99.90;;;;;;5081868;28;19947;-68
2023/04/19 05:30:33;;;;;;;;;;;10.50;99.90;;;;;;5086325;28;19960;-67
2023/04/19 05:33:00;;;;;;;;;;;10.50;99.90;;;;;;5078850;28;19924;-67
2023/04/19 05:35:28;;;;;;;;;;;;;;;;;;5086646;28;19927;-67
2023/04/19 05:37:54;;;;;;;;;;;10.50;99.90;;;;;;5084274;28;19964;-67
2023/04/19 05:40:22;;;;;;;;;;;;;;;;;;5084509;28;19924;-68
2023/04/19 05:42:49;;;;;;;;;;;10.60;99.90;;;;;;5082615;28;19932;-67
2023/04/19 05:45:18;;;;;;;;;;;10.70;99.90;;;;;;5074796;28;19924;-68
2023/04/19 05:47:46;;;;;;;;;;;10.70;99.90;;;;;;5080353;28;20020;-67
2023/04/19 05:50:31;;;;;;;;;;;10.70;99.90;;;;;;5083072;28;20017;-67
2023/04/19 05:53:23;;;;;;;;;;;10.80;99.90;;;;;;5082428;28;19934;-67
2023/04/19 05:55:51;;;;;;;;;;;10.80;99.90;;;;;;5076440;28;19924;-67
2023/04/19 05:58:17;;;;;;;;;;;10.80;99.90;;;;;;5074708;28;19924;-68
2023/04/19 06:00:44;;;;;;;;;;;10.80;99.90;;;;;;5087938;28;19930;-68
2023/04/19 06:03:14;;;;;;;;;;;;;;;;;;5083599;28;20423;-67
2023/04/19 06:05:43;;;;;;;;;;;10.80;99.90;;;;;;5078635;28;19967;-68
2023/04/19 06:08:10;;;;;;;;;;;10.90;99.90;;;;;;5083507;28;19925;-66
2023/04/19 06:10:37;;;;;;;;;;;10.90;99.90;;;;;;5098249;28;19928;-69
2023/04/19 06:13:04;;;;;;;;;;;10.90;99.90;;;;;;5077803;28;19925;-67
2023/04/19 06:15:31;;;;;;;;;;;10.90;99.90;;;;;;5076157;28;20395;-67
2023/04/19 06:17:57;;;;;;;;;;;10.90;99.90;;;;;;5094765;28;19925;-67
2023/04/19 06:20:24;;;;;;;;;;;10.80;99.90;;;;;;5086163;28;20368;-68
2023/04/19 06:22:52;;;;;;;;;;;10.80;99.90;;;;;;5089199;28;19928;-69
2023/04/19 06:25:19;;;;;;;;;;;10.80;99.90;;;;;;5084177;28;19928;-68
2023/04/19 06:27:46;;;;;;;;;;;10.80;99.90;;;;;;5086468;28;20387;-66
2023/04/19 06:30:13;;;;;;;;;;;10.90;99.90;;;;;;5072429;28;19947;-68
2023/04/19 06:32:40;;;;;;;;;;;10.80;99.90;;;;;;5082548;28;19928;-67
2023/04/19 06:35:07;;;;;;;;;;;10.90;99.90;;;;;;5079110;28;20415;-68
2023/04/19 06:37:34;;;;;;;;;;;10.90;99.90;;;;;;5075959;28;20341;-67
2023/04/19 06:40:03;;;;;;;;;;;10.90;99.90;;;;;;5085256;28;19924;-68
2023/04/19 06:42:31;;;;;;;;;;;;;;;;;;5080456;28;19928;-68
2023/04/19 06:44:57;;;;;;;;;;;11.00;99.90;;;;;;5091714;28;20349;-68
2023/04/19 06:47:24;;;;;;;;;;;11.10;99.90;;;;;;5086277;28;19931;-67
2023/04/19 06:49:51;;;;;;;;;;;11.10;99.90;;;;;;5088625;28;19928;-67
2023/04/19 06:52:18;;;;;;;;;;;11.10;99.90;;;;;;5101516;28;19924;-68
2023/04/19 06:54:47;;;;;;;;;;;11.20;99.90;;;;;;5081535;28;20347;-68
2023/04/19 06:57:15;;;;;;;;;;;11.30;99.90;;;;;;5087646;28;20333;-67
2023/04/19 06:59:42;;;;;;;;;;;11.30;99.90;;;;;;5106147;28;19973;-68
2023/04/19 07:02:09;;;;;;;;;;;11.30;99.90;;;;;;5093470;28;20382;-71
2023/04/19 07:04:36;;;;;;;;;;;11.40;99.90;;;;;;5088031;28;19928;-68
2023/04/19 07:07:03;;;;;;;;;;;11.40;99.90;;;;;;5093108;28;20014;-68
2023/04/19 07:09:29;;;;;;;;;;;11.50;99.90;;;;;;5078886;28;20358;-67
2023/04/19 07:11:57;;;;;;;;;;;;;;;;;;5086614;28;20390;-68
2023/04/19 07:14:24;;;;;;;;;;;;;;;;;;5106003;28;19961;-70
2023/04/19 07:16:52;;;;;;;;;;;11.40;99.90;;;;;;5084103;28;19925;-68
2023/04/19 07:19:21;;;;;;;;;;;;;;;;;;5089071;28;20039;-68
2023/04/19 07:21:48;;;;;;;;;;;11.60;99.90;;;;;;5087252;28;19928;-69
2023/04/19 07:24:15;;;;;;;;;;;11.50;99.90;;;;;;5088809;28;20395;-68
2023/04/19 07:26:41;;;;;;;;;;;11.60;99.90;;;;;;5088840;28;19932;-68
2023/04/19 07:29:08;;;;;;;;;;;11.70;99.90;;;;;;5088636;28;19931;-70
2023/04/19 07:31:35;;;;;;;;;;;11.80;99.90;;;;;;5085615;28;20010;-69
2023/04/19 07:34:02;;;;;;;;;;;;;;;;;;5077114;28;19931;-68
2023/04/19 07:36:30;;;;;;;;;;;11.90;99.90;;;;;;5076050;28;19924;-68
2023/04/19 07:38:57;;;;;;;;;;;11.90;99.90;;;;;;5078917;28;20395;-68
2023/04/19 07:41:24;;;;;;;;;;;11.90;99.90;;;;;;5087063;28;19924;-68
2023/04/19 07:43:51;;;;;;;;;;;11.90;99.90;;;;;;5083335;28;19924;-68
2023/04/19 07:46:18;;;;;;;;;;;12.00;99.90;;;;;;5084899;28;19924;-67
2023/04/19 07:48:45;;;;;;;;;;;12.10;99.90;;;;;;5084199;28;19928;-68
2023/04/19 07:51:12;;;;;;;;;;;12.30;99.90;;;;;;5091151;28;19924;-68
2023/04/19 07:53:41;;;;;;;;;;;12.40;99.90;;;;;;5080309;28;20394;-68
2023/04/19 07:56:08;;;;;;;;;;;12.50;99.90;;;;;;5080455;28;19925;-67
2023/04/19 07:58:35;;;;;;;;;;;12.50;99.90;;;;;;5078868;28;19938;-68
2023/04/19 08:01:02;;;;;;;;;;;12.50;99.90;;;;;;5077153;28;20525;-68
2023/04/19 08:03:30;;;;;;;;;;;12.50;99.90;;;;;;5081639;28;20359;-67
2023/04/19 08:05:57;;;;;;;;;;;12.50;99.90;;;;;;5088099;28;19928;-69
2023/04/19 08:08:24;;;;;;;;;;;;;;;;;;5077929;28;20370;-68
2023/04/19 08:10:54;;;;;;;;;;;;;;;;;;5091245;28;19928;-68
2023/04/19 08:13:22;;;;;;;;;;;12.70;99.90;;;;;;5097939;28;19928;-68
2023/04/19 08:15:48;;;;;;;;;;;12.80;99.90;;;;;;5094458;28;19974;-68
2023/04/19 08:18:15;;;;;;;;;;;13.10;99.90;;;;;;5083599;28;19924;-68
2023/04/19 08:20:42;;;;;;;;;;;13.20;99.90;;;;;;5079172;28;19928;-68
2023/04/19 08:23:10;;;;;;;;;;;13.40;99.90;;;;;;5085908;28;19924;-68
2023/04/19 08:25:36;;;;;;;;;;;13.40;99.90;;;;;;5079520;28;19924;-67
2023/04/19 08:28:03;;;;;;;;;;;13.30;99.90;;;;;;5084944;28;19928;-69
2023/04/19 08:30:31;;;;;;;;;;;13.20;99.90;;;;;;5084796;28;19929;-67
2023/04/19 08:32:58;;;;;;;;;;;13.10;99.90;;;;;;5080981;28;19931;-68
2023/04/19 08:35:25;;;;;;;;;;;13.00;99.90;;;;;;5083054;28;19977;-68
2023/04/19 08:37:52;;;;;;;;;;;13.10;99.90;;;;;;5098773;28;20294;-68
2023/04/19 08:40:19;;;;;;;;;;;13.30;99.90;;;;;;5080007;28;20655;-69
2023/04/19 08:42:46;;;;;;;;;;;13.50;99.90;;;;;;5083334;28;19936;-67
2023/04/19 08:45:14;;;;;;;;;;;13.60;99.90;;;;;;5081813;28;19928;-68
2023/04/19 08:47:42;;;;;;;;;;;13.50;99.90;;;;;;5104704;28;20380;-68
2023/04/19 08:50:09;;;;;;;;;;;13.70;99.90;;;;;;5081034;28;19947;-66
2023/04/19 08:52:36;;;;;;;;;;;13.80;99.90;;;;;;5073852;28;19933;-68
2023/04/19 08:55:04;;;;;;;;;;;13.80;99.90;;;;;;5084053;28;19924;-68
2023/04/19 08:57:31;;;;;;;;;;;13.80;99.90;;;;;;5080700;28;19928;-68
2023/04/19 08:59:58;;;;;;;;;;;13.90;99.90;;;;;;5084430;28;20406;-68
2023/04/19 09:02:24;;;;;;;;;;;13.90;99.90;;;;;;5082252;28;19928;-68
2023/04/19 09:04:53;;;;;;;;;;;14.00;99.90;;;;;;5075369;28;19931;-68
2023/04/19 09:07:23;;;;;;;;;;;14.00;99.90;;;;;;5083797;28;19977;-68
2023/04/19 09:10:03;;;;;;;;;;;14.10;99.90;;;;;;5087498;28;20466;-67
2023/04/19 09:12:30;;;;;;;;;;;14.20;99.90;;;;;;5083719;28;19924;-67
2023/04/19 09:14:57;;;;;;;;;;;14.20;99.90;;;;;;5078625;28;19928;-69
2023/04/19 09:17:24;;;;;;;;;;;14.30;99.90;;;;;;5082644;28;19924;-68
2023/04/19 09:19:50;;;;;;;;;;;14.20;99.90;;;;;;5077547;28;19928;-68
2023/04/19 09:22:19;;;;;;;;;;;14.30;99.90;;;;;;5078013;28;19928;-68
2023/04/19 09:24:45;;;;;;;;;;;14.30;99.90;;;;;;5093073;28;19928;-69
2023/04/19 09:27:12;;;;;;;;;;;14.40;99.90;;;;;;5092245;28;20016;-68
2023/04/19 09:29:39;;;;;;;;;;;14.40;99.90;;;;;;5080495;28;19982;-68
2023/04/19 09:32:06;;;;;;;;;;;14.40;99.90;;;;;;5076660;28;19928;-68
2023/04/19 09:34:33;;;;;;;;;;;14.50;99.90;;;;;;5079286;28;19928;-68
2023/04/19 09:37:11;;;;;;;;;;;14.60;99.90;;;;;;5078234;28;19929;-66
2023/04/19 09:39:39;;;;;;;;;;;14.60;99.90;;;;;;5077138;28;20365;-69
2023/04/19 09:42:07;;;;;;;;;;;14.50;99.90;;;;;;5078459;28;19924;-67
2023/04/19 09:44:35;;;;;;;;;;;;;;;;;;5087010;28;19964;-68
2023/04/19 09:47:01;;;;;;;;;;;14.60;99.90;;;;;;5075273;28;19932;-69
2023/04/19 09:49:28;;;;;;;;;;;14.70;99.90;;;;;;5078662;28;19932;-68
2023/04/19 09:51:55;;;;;;;;;;;14.70;99.90;;;;;;5081505;28;19932;-69
2023/04/19 09:54:23;;;;;;;;;;;14.80;99.90;;;;;;5075368;28;19932;-68
2023/04/19 09:56:51;;;;;;;;;;;14.90;99.90;;;;;;5088406;28;19924;-69
2023/04/19 09:59:18;;;;;;;;;;;15.00;99.90;;;;;;5083020;28;19924;-68
2023/04/19 10:01:45;;;;;;;;;;;15.20;99.90;;;;;;5078560;28;20298;-69
2023/04/19 10:04:20;;;;;;;;;;;15.30;99.90;;;;;;5074739;28;19924;-68
2023/04/19 10:06:47;;;;;;;;;;;15.40;99.90;;;;;;5071416;28;19924;-69
2023/04/19 10:09:14;;;;;;;;;;;15.40;99.90;;;;;;5082199;28;20334;-68
2023/04/19 10:11:43;;;;;;;;;;;15.30;99.90;;;;;;5088719;28;20349;-68
2023/04/19 10:14:11;;;;;;;;;;;15.10;99.90;;;;;;5083855;28;19929;-68
2023/04/19 10:16:39;;;;;;;;;;;15.10;99.90;;;;;;5086424;28;19935;-68
2023/04/19 10:19:06;;;;;;;;;;;15.10;99.90;;;;;;5077946;28;19931;-69
2023/04/19 10:21:34;;;;;;;;;;;15.20;99.90;;;;;;5086012;28;19928;-68
2023/04/19 10:24:00;;;;;;;;;;;15.20;99.90;;;;;;5077596;28;19967;-69
2023/04/19 10:26:28;;;;;;;;;;;15.30;99.90;;;;;;5078848;28;19932;-68
2023/04/19 10:28:56;;;;;;;;;;;15.50;99.90;;;;;;5079811;28;19931;-69
2023/04/19 10:31:25;;;;;;;;;;;15.80;99.90;;;;;;5076104;28;20019;-67
2023/04/19 10:33:52;;;;;;;;;;;15.90;99.90;;;;;;5087799;28;19924;-69
2023/04/19 10:36:21;;;;;;;;;;;15.60;99.90;;;;;;5079864;28;19928;-68
2023/04/19 10:38:51;;;;;;;;;;;15.50;99.90;;;;;;5085551;28;20360;-68
2023/04/19 10:41:18;;;;;;;;;;;15.30;99.90;;;;;;5086615;28;20387;-69
2023/04/19 10:43:46;;;;;;;;;;;15.40;99.90;;;;;;5085397;28;19924;-68
2023/04/19 10:46:16;;;;;;;;;;;15.60;99.90;;;;;;5076831;28;19924;-68
2023/04/19 10:48:54;;;;;;;;;;;15.90;99.90;;;;;;5083116;28;20386;-68
2023/04/19 10:51:22;;;;;;;;;;;15.90;99.90;;;;;;5081262;28;19974;-67
2023/04/19 10:53:50;;;;;;;;;;;16.00;99.90;;;;;;5089327;28;20272;-67
2023/04/19 10:56:18;;;;;;;;;;;16.00;99.90;;;;;;5082790;28;19924;-69
2023/04/19 10:59:06;;;;;;;;;;;16.00;99.90;;;;;;5085783;28;19924;-68
2023/04/19 11:01:35;;;;;;;;;;;15.90;99.90;;;;;;5095680;28;20031;-68
2023/04/19 11:04:04;;;;;;;;;;;16.00;99.90;;;;;;5077825;28;19924;-69
2023/04/19 11:06:31;;;;;;;;;;;16.10;99.90;;;;;;5088840;28;20409;-69
2023/04/19 11:08:58;;;;;;;;;;;16.30;99.90;;;;;;5077435;28;19928;-68
2023/04/19 11:11:25;;;;;;;;;;;16.50;99.90;;;;;;5075926;28;19928;-69
2023/04/19 11:13:53;;;;;;;;;;;16.70;99.90;;;;;;5099843;28;19931;-68
2023/04/19 11:16:19;;;;;;;;;;;16.90;99.90;;;;;;5072721;28;19924;-68
2023/04/19 11:18:46;;;;;;;;;;;16.70;99.90;;;;;;5076153;28;20484;-69
2023/04/19 11:21:15;;;;;;;;;;;17.00;99.90;;;;;;5077490;28;19929;-69
2023/04/19 11:23:41;;;;;;;;;;;16.90;99.90;;;;;;5086348;28;19925;-69
2023/04/19 11:26:10;;;;;;;;;;;17.40;99.90;;;;;;5083530;28;19924;-68
2023/04/19 11:28:37;;;;;;;;;;;17.40;99.90;;;;;;5085915;28;20031;-68
2023/04/19 11:31:04;;;;;;;;;;;18.50;99.90;;;;;;5080558;28;20394;-69
2023/04/19 11:33:33;;;;;;;;;;;21.20;99.90;;;;;;5083342;28;19931;-66
2023/04/19 11:36:00;;;;;;;;;;;23.50;99.90;;;;;;5082628;28;19929;-69
2023/04/19 11:38:29;;;;;;;;;;;24.00;99.90;;;;;;5076254;28;20379;-68
2023/04/19 11:40:59;;;;;;;;;;;25.30;99.90;;;;;;5083540;28;19924;-67
2023/04/19 11:43:32;;;;;;;;;;;25.60;99.90;;;;;;5083705;28;19959;-69
2023/04/19 11:46:04;;;;;;;;;;;25.40;99.90;;;;;;5075564;28;20326;-70
2023/04/19 11:48:31;;;;;;;;;;;25.80;99.90;;;;;;5088543;28;19950;-68
2023/04/19 11:50:58;;;;;;;;;;;26.90;99.90;;;;;;5077084;28;19924;-67
2023/04/19 11:53:26;;;;;;;;;;;27.00;99.90;;;;;;5088622;28;19928;-70
2023/04/19 11:55:56;;;;;;;;;;;27.40;99.90;;;;;;5083419;28;20023;-69
2023/04/19 11:58:24;;;;;;;;;;;27.80;99.90;;;;;;5088350;28;19960;-69
2023/04/19 12:00:51;;;;;;;;;;;28.10;99.90;;;;;;5087811;28;19924;-70
2023/04/19 12:03:20;;;;;;;;;;;26.50;99.90;;;;;;5075597;28;19925;-69
2023/04/19 12:05:52;;;;;;;;;;;25.40;99.90;;;;;;5091527;28;19924;-69
2023/04/19 12:08:29;;;;;;;;;;;25.50;99.90;;;;;;5083440;28;19928;-69
2023/04/19 12:10:58;;;;;;;;;;;25.20;99.90;;;;;;5097091;28;19931;-69
2023/04/19 12:13:25;;;;;;;;;;;25.20;99.90;;;;;;5079726;28;19982;-69
2023/04/19 12:15:52;;;;;;;;;;;25.40;99.90;;;;;;5084509;28;20024;-69
2023/04/19 12:18:18;;;;;;;;;;;24.50;99.90;;;;;;5079927;28;19966;-69
2023/04/19 12:20:46;;;;;;;;;;;23.50;99.90;;;;;;5083248;28;19924;-69
2023/04/19 12:23:14;;;;;;;;;;;24.20;99.90;;;;;;5083640;28;20015;-68
2023/04/19 12:25:41;;;;;;;;;;;24.60;99.90;;;;;;5087836;28;19928;-69
2023/04/19 12:28:10;;;;;;;;;;;25.10;99.90;;;;;;5076813;28;19932;-70
2023/04/19 12:30:36;;;;;;;;;;;24.80;99.90;;;;;;5081752;28;19924;-69
2023/04/19 12:33:03;;;;;;;;;;;24.00;99.90;;;;;;5079314;28;20027;-70
2023/04/19 12:35:30;;;;;;;;;;;24.50;99.90;;;;;;5079347;28;19929;-69
2023/04/19 12:37:58;;;;;;;;;;;25.70;99.90;;;;;;5108182;28;19970;-70
2023/04/19 12:40:25;;;;;;;;;;;25.60;99.90;;;;;;5082253;28;20072;-70
2023/04/19 12:42:52;;;;;;;;;;;25.90;99.90;;;;;;5080016;28;19931;-69
2023/04/19 12:45:21;;;;;;;;;;;25.10;99.90;;;;;;5078689;28;19925;-69
2023/04/19 12:47:48;;;;;;;;;;;24.30;99.90;;;;;;5071952;28;19925;-69
2023/04/19 12:50:15;;;;;;;;;;;24.50;99.90;;;;;;5083451;28;19932;-70
2023/04/19 12:52:42;;;;;;;;;;;23.80;99.90;;;;;;5082374;28;19924;-69
2023/04/19 12:55:09;;;;;;;;;;;23.50;99.90;;;;;;5108238;28;19928;-70
2023/04/19 12:57:36;;;;;;;;;;;23.70;99.90;;;;;;5082194;28;19928;-70
2023/04/19 13:00:04;;;;;;;;;;;23.70;99.90;;;;;;5079704;28;19932;-70
2023/04/19 13:02:35;;;;;;;;;;;24.00;99.90;;;;;;5063517;28;22298;-69
2023/04/19 13:05:03;;;;;;;;;;;23.80;99.90;;;;;;5089482;28;19931;-68
2023/04/19 13:07:30;;;;;;;;;;;24.60;99.90;;;;;;5082038;28;19971;-69
2023/04/19 13:09:57;;;;;;;;;;;25.20;99.90;;;;;;5083062;28;19924;-71
2023/04/19 13:12:24;;;;;;;;;;;24.80;99.90;;;;;;5080900;28;19939;-69
2023/04/19 13:14:51;;;;;;;;;;;24.90;99.90;;;;;;5081146;28;19928;-69
2023/04/19 13:17:18;;;;;;;;;;;24.60;99.90;;;;;;5083575;28;19924;-70
2023/04/19 13:19:46;;;;;;;;;;;25.20;99.90;;;;;;5080831;28;19978;-69
2023/04/19 13:22:13;;;;;;;;;;;25.50;99.90;;;;;;5105433;28;19986;-70
2023/04/19 13:24:40;;;;;;;;;;;25.90;99.90;;;;;;5074284;28;19997;-72
2023/04/19 13:27:06;;;;;;;;;;;26.60;99.90;;;;;;5104781;28;19924;-70
2023/04/19 13:29:33;;;;;;;;;;;26.40;99.90;;;;;;5090284;28;20356;-69
2023/04/19 13:32:00;;;;;;;;;;;25.50;99.90;;;;;;5095621;28;19939;-69
2023/04/19 13:34:27;;;;;;;;;;;25.70;99.90;;;;;;5080937;28;19928;-69
2023/04/19 13:36:56;;;;;;;;;;;25.70;99.90;;;;;;5078892;28;19933;-69
2023/04/19 13:39:23;;;;;;;;;;;25.70;99.90;;;;;;5085389;28;19928;-70
2023/04/19 13:41:49;;;;;;;;;;;25.50;99.90;;;;;;5078834;28;19935;-70
2023/04/19 13:44:16;;;;;;;;;;;25.80;99.90;;;;;;5089259;28;19924;-70
2023/04/19 13:46:43;;;;;;;;;;;25.40;99.90;;;;;;5095128;28;19924;-70
2023/04/19 13:49:10;;;;;;;;;;;25.10;99.90;;;;;;5106282;28;19924;-71
2023/04/19 13:51:36;;;;;;;;;;;25.80;99.90;;;;;;5100386;28;19931;-70
2023/04/19 13:54:05;;;;;;;;;;;26.00;99.90;;;;;;5082915;28;19924;-71
2023/04/19 13:56:31;;;;;;;;;;;25.90;99.90;;;;;;5076236;28;20013;-70
2023/04/19 13:58:58;;;;;;;;;;;26.10;99.90;;;;;;5089435;28;19924;-71
2023/04/19 14:01:25;;;;;;;;;;;;;;;;;;5100038;28;19928;-70
2023/04/19 14:03:52;;;;;;;;;;;24.70;99.90;;;;;;5076362;28;19924;-70
2023/04/19 14:06:19;;;;;;;;;;;;;;;;;;5074484;28;19944;-70
2023/04/19 14:08:46;;;;;;;;;;;;;;;;;;5075937;28;19924;-69
2023/04/19 14:11:13;;;;;;;;;;;;;;;;;;5077767;28;19929;-70
2023/04/19 14:13:40;;;;;;;;;;;;;;;;;;5084496;28;19924;-70
2023/04/19 14:16:07;;;;;;;;;;;;;;;;;;5078676;28;19960;-71
2023/04/19 14:18:35;;;;;;;;;;;;;;;;;;5080426;28;19924;-71
2023/04/19 14:21:01;;;;;;;;;;;;;;;;;;5078955;28;19928;-71
2023/04/19 14:23:29;;;;;;;;;;;;;;;;;;5098736;28;19924;-68
2023/04/19 14:25:56;;;;;;;;;;;;;;;;;;5086743;28;20675;-70
2023/04/19 14:28:23;;;;;;;;;;;;;;;;;;5077994;28;19978;-71
2023/04/19 14:30:50;;;;;;;;;;;;;;;;;;5079733;28;20461;-70
2023/04/19 14:33:17;;;;;;;;;;;;;;;;;;5086352;28;20023;-71
2023/04/19 14:35:44;;;;;;;;;;;;;;;;;;5078207;28;20002;-70
2023/04/19 14:38:11;;;;;;;;;;;;;;;;;;5081303;28;19928;-71